sensor_id;sensor_type;location;lat;lon;timestamp;P1;durP1;ratioP1;P2;durP2;ratioP2
70985;SDS011;58645;43.068;25.610;2024-03-17T00:06:44;18.85;;;11.02;;
70985;SDS011;58645;43.068;25.610;2024-03-17T00:09:10;19.63;;;10.40;;
70985;SDS011;58645;43.068;25.610;2024-03-17T00:11:36;17.02;;;10.73;;
70985;SDS011;58645;43.068;25.610;2024-03-17T00:14:02;16.20;;;9.13;;
70985;SDS011;58645;43.068;25.610;2024-03-17T00:16:28;20.10;;;11.45;;
70985;SDS011;58645;43.068;25.610;2024-03-17T00:18:54;19.25;;;10.80;;
70985;SDS011;58645;43.068;25.610;2024-03-17T00:23:49;17.60;;;9.48;;
70985;SDS011;58645;43.068;25.610;2024-03-17T00:26:15;15.73;;;9.18;;
70985;SDS011;58645;43.068;25.610;2024-03-17T00:28:41;13.07;;;8.93;;
70985;SDS011;58645;43.068;25.610;2024-03-17T00:31:10;14.77;;;8.52;;
70985;SDS011;58645;43.068;25.610;2024-03-17T00:33:35;12.00;;;6.75;;
70985;SDS011;58645;43.068;25.610;2024-03-17T00:36:01;14.27;;;8.43;;
70985;SDS011;58645;43.068;25.610;2024-03-17T00:38:27;11.55;;;7.57;;
70985;SDS011;58645;43.068;25.610;2024-03-17T00:40:54;13.50;;;8.02;;
70985;SDS011;58645;43.068;25.610;2024-03-17T00:43:20;12.65;;;7.63;;
70985;SDS011;58645;43.068;25.610;2024-03-17T00:45:52;12.60;;;7.22;;
70985;SDS011;58645;43.068;25.610;2024-03-17T00:48:18;11.75;;;6.00;;
70985;SDS011;58645;43.068;25.610;2024-03-17T00:50:44;11.80;;;7.18;;
70985;SDS011;58645;43.068;25.610;2024-03-17T00:53:13;13.50;;;7.25;;
70985;SDS011;58645;43.068;25.610;2024-03-17T00:55:39;12.95;;;7.70;;
70985;SDS011;58645;43.068;25.610;2024-03-17T00:58:05;11.43;;;6.72;;
70985;SDS011;58645;43.068;25.610;2024-03-17T01:00:31;13.80;;;7.35;;
70985;SDS011;58645;43.068;25.610;2024-03-17T01:02:59;14.23;;;7.93;;
70985;SDS011;58645;43.068;25.610;2024-03-17T01:05:25;12.18;;;7.10;;
70985;SDS011;58645;43.068;25.610;2024-03-17T01:07:51;14.65;;;8.02;;
70985;SDS011;58645;43.068;25.610;2024-03-17T01:10:16;12.57;;;6.57;;
70985;SDS011;58645;43.068;25.610;2024-03-17T01:12:42;13.20;;;8.20;;
70985;SDS011;58645;43.068;25.610;2024-03-17T01:15:08;14.80;;;7.53;;
70985;SDS011;58645;43.068;25.610;2024-03-17T01:17:34;13.15;;;7.53;;
70985;SDS011;58645;43.068;25.610;2024-03-17T01:20:00;13.00;;;8.10;;
70985;SDS011;58645;43.068;25.610;2024-03-17T01:22:27;11.23;;;7.00;;
70985;SDS011;58645;43.068;25.610;2024-03-17T01:24:53;11.68;;;7.47;;
70985;SDS011;58645;43.068;25.610;2024-03-17T01:27:19;12.45;;;7.03;;
70985;SDS011;58645;43.068;25.610;2024-03-17T01:29:44;9.85;;;6.13;;
70985;SDS011;58645;43.068;25.610;2024-03-17T01:32:10;14.32;;;7.65;;
70985;SDS011;58645;43.068;25.610;2024-03-17T01:34:37;10.40;;;6.57;;
70985;SDS011;58645;43.068;25.610;2024-03-17T01:37:03;11.95;;;6.65;;
70985;SDS011;58645;43.068;25.610;2024-03-17T01:39:29;12.52;;;7.53;;
70985;SDS011;58645;43.068;25.610;2024-03-17T01:41:57;11.40;;;6.38;;
70985;SDS011;58645;43.068;25.610;2024-03-17T01:44:27;16.83;;;8.35;;
70985;SDS011;58645;43.068;25.610;2024-03-17T01:46:55;17.10;;;8.18;;
70985;SDS011;58645;43.068;25.610;2024-03-17T01:49:22;12.50;;;6.85;;
70985;SDS011;58645;43.068;25.610;2024-03-17T01:51:48;14.80;;;8.05;;
70985;SDS011;58645;43.068;25.610;2024-03-17T01:54:15;15.95;;;9.00;;
70985;SDS011;58645;43.068;25.610;2024-03-17T01:56:42;17.88;;;8.63;;
70985;SDS011;58645;43.068;25.610;2024-03-17T02:01:35;12.80;;;6.70;;
70985;SDS011;58645;43.068;25.610;2024-03-17T02:04:01;11.30;;;5.93;;
70985;SDS011;58645;43.068;25.610;2024-03-17T02:06:28;11.80;;;7.22;;
70985;SDS011;58645;43.068;25.610;2024-03-17T02:08:54;15.38;;;7.25;;
70985;SDS011;58645;43.068;25.610;2024-03-17T02:11:24;10.93;;;6.10;;
70985;SDS011;58645;43.068;25.610;2024-03-17T02:13:54;10.77;;;6.43;;
70985;SDS011;58645;43.068;25.610;2024-03-17T02:16:21;11.43;;;6.47;;
70985;SDS011;58645;43.068;25.610;2024-03-17T02:18:48;13.70;;;6.43;;
70985;SDS011;58645;43.068;25.610;2024-03-17T02:21:14;12.25;;;6.10;;
70985;SDS011;58645;43.068;25.610;2024-03-17T02:23:44;13.48;;;6.05;;
70985;SDS011;58645;43.068;25.610;2024-03-17T02:26:10;10.98;;;6.15;;
70985;SDS011;58645;43.068;25.610;2024-03-17T02:28:43;10.52;;;5.10;;
70985;SDS011;58645;43.068;25.610;2024-03-17T02:31:09;11.45;;;6.75;;
70985;SDS011;58645;43.068;25.610;2024-03-17T02:33:36;12.00;;;6.72;;
70985;SDS011;58645;43.068;25.610;2024-03-17T02:38:30;11.98;;;6.38;;
70985;SDS011;58645;43.068;25.610;2024-03-17T02:41:15;11.65;;;6.45;;
70985;SDS011;58645;43.068;25.610;2024-03-17T02:43:41;11.23;;;6.10;;
70985;SDS011;58645;43.068;25.610;2024-03-17T02:46:10;10.27;;;6.53;;
70985;SDS011;58645;43.068;25.610;2024-03-17T02:48:38;11.60;;;6.90;;
70985;SDS011;58645;43.068;25.610;2024-03-17T02:51:10;13.38;;;6.53;;
70985;SDS011;58645;43.068;25.610;2024-03-17T02:53:37;12.80;;;6.60;;
70985;SDS011;58645;43.068;25.610;2024-03-17T02:56:02;12.55;;;7.53;;
70985;SDS011;58645;43.068;25.610;2024-03-17T02:58:28;13.13;;;6.93;;
70985;SDS011;58645;43.068;25.610;2024-03-17T03:00:54;13.98;;;7.68;;
70985;SDS011;58645;43.068;25.610;2024-03-17T03:03:19;14.02;;;7.07;;
70985;SDS011;58645;43.068;25.610;2024-03-17T03:05:45;14.77;;;7.30;;
70985;SDS011;58645;43.068;25.610;2024-03-17T03:08:11;18.95;;;9.52;;
70985;SDS011;58645;43.068;25.610;2024-03-17T03:10:37;18.80;;;8.35;;
70985;SDS011;58645;43.068;25.610;2024-03-17T03:13:02;15.32;;;7.25;;
70985;SDS011;58645;43.068;25.610;2024-03-17T03:15:30;19.77;;;10.77;;
70985;SDS011;58645;43.068;25.610;2024-03-17T03:17:57;13.18;;;7.35;;
70985;SDS011;58645;43.068;25.610;2024-03-17T03:20:23;16.48;;;7.47;;
70985;SDS011;58645;43.068;25.610;2024-03-17T03:22:49;16.48;;;7.93;;
70985;SDS011;58645;43.068;25.610;2024-03-17T03:25:14;18.70;;;9.52;;
70985;SDS011;58645;43.068;25.610;2024-03-17T03:27:40;20.33;;;10.23;;
70985;SDS011;58645;43.068;25.610;2024-03-17T03:30:06;20.33;;;10.35;;
70985;SDS011;58645;43.068;25.610;2024-03-17T03:32:33;23.10;;;12.73;;
70985;SDS011;58645;43.068;25.610;2024-03-17T03:34:59;21.95;;;12.57;;
70985;SDS011;58645;43.068;25.610;2024-03-17T03:37:25;23.35;;;13.00;;
70985;SDS011;58645;43.068;25.610;2024-03-17T03:39:51;20.15;;;11.95;;
70985;SDS011;58645;43.068;25.610;2024-03-17T03:42:16;23.15;;;11.07;;
70985;SDS011;58645;43.068;25.610;2024-03-17T03:44:42;22.83;;;11.38;;
70985;SDS011;58645;43.068;25.610;2024-03-17T03:47:08;21.40;;;12.05;;
70985;SDS011;58645;43.068;25.610;2024-03-17T03:49:34;20.60;;;11.25;;
70985;SDS011;58645;43.068;25.610;2024-03-17T03:51:59;24.58;;;13.18;;
70985;SDS011;58645;43.068;25.610;2024-03-17T03:54:25;26.13;;;14.00;;
70985;SDS011;58645;43.068;25.610;2024-03-17T03:56:51;28.73;;;16.10;;
70985;SDS011;58645;43.068;25.610;2024-03-17T03:59:16;29.60;;;14.63;;
70985;SDS011;58645;43.068;25.610;2024-03-17T04:01:42;27.23;;;13.32;;
70985;SDS011;58645;43.068;25.610;2024-03-17T04:04:08;25.77;;;14.98;;
70985;SDS011;58645;43.068;25.610;2024-03-17T04:06:34;26.60;;;14.00;;
70985;SDS011;58645;43.068;25.610;2024-03-17T04:09:02;24.60;;;13.55;;
70985;SDS011;58645;43.068;25.610;2024-03-17T04:11:32;21.95;;;10.45;;
70985;SDS011;58645;43.068;25.610;2024-03-17T04:13:59;23.65;;;12.25;;
70985;SDS011;58645;43.068;25.610;2024-03-17T04:16:26;20.83;;;12.07;;
70985;SDS011;58645;43.068;25.610;2024-03-17T04:18:52;21.88;;;12.30;;
70985;SDS011;58645;43.068;25.610;2024-03-17T04:21:17;21.58;;;12.93;;
70985;SDS011;58645;43.068;25.610;2024-03-17T04:23:43;23.13;;;12.27;;
70985;SDS011;58645;43.068;25.610;2024-03-17T04:26:09;23.58;;;12.15;;
70985;SDS011;58645;43.068;25.610;2024-03-17T04:28:35;19.23;;;10.77;;
70985;SDS011;58645;43.068;25.610;2024-03-17T04:31:05;22.48;;;11.57;;
70985;SDS011;58645;43.068;25.610;2024-03-17T04:33:31;20.15;;;10.95;;
70985;SDS011;58645;43.068;25.610;2024-03-17T04:36:01;21.02;;;12.48;;
70985;SDS011;58645;43.068;25.610;2024-03-17T04:38:29;22.65;;;12.82;;
70985;SDS011;58645;43.068;25.610;2024-03-17T04:40:55;26.73;;;14.75;;
70985;SDS011;58645;43.068;25.610;2024-03-17T04:46:03;36.88;;;16.20;;
70985;SDS011;58645;43.068;25.610;2024-03-17T04:48:30;30.27;;;16.65;;
70985;SDS011;58645;43.068;25.610;2024-03-17T04:53:24;35.85;;;15.40;;
70985;SDS011;58645;43.068;25.610;2024-03-17T04:55:58;33.05;;;16.98;;
70985;SDS011;58645;43.068;25.610;2024-03-17T04:58:29;35.17;;;18.75;;
70985;SDS011;58645;43.068;25.610;2024-03-17T05:00:54;33.15;;;15.65;;
70985;SDS011;58645;43.068;25.610;2024-03-17T05:03:20;30.45;;;17.15;;
70985;SDS011;58645;43.068;25.610;2024-03-17T05:05:46;39.88;;;18.58;;
70985;SDS011;58645;43.068;25.610;2024-03-17T05:08:11;36.97;;;14.75;;
70985;SDS011;58645;43.068;25.610;2024-03-17T05:10:38;30.35;;;16.98;;
70985;SDS011;58645;43.068;25.610;2024-03-17T05:13:03;31.35;;;16.50;;
70985;SDS011;58645;43.068;25.610;2024-03-17T05:15:29;34.88;;;15.93;;
70985;SDS011;58645;43.068;25.610;2024-03-17T05:17:55;39.75;;;19.20;;
70985;SDS011;58645;43.068;25.610;2024-03-17T05:20:21;34.78;;;19.42;;
70985;SDS011;58645;43.068;25.610;2024-03-17T05:22:46;34.75;;;18.50;;
70985;SDS011;58645;43.068;25.610;2024-03-17T05:25:14;34.03;;;18.98;;
70985;SDS011;58645;43.068;25.610;2024-03-17T05:27:40;37.05;;;18.80;;
70985;SDS011;58645;43.068;25.610;2024-03-17T05:30:06;30.70;;;16.80;;
70985;SDS011;58645;43.068;25.610;2024-03-17T05:32:33;33.58;;;19.15;;
70985;SDS011;58645;43.068;25.610;2024-03-17T05:34:59;32.90;;;17.77;;
70985;SDS011;58645;43.068;25.610;2024-03-17T05:37:25;28.38;;;17.33;;
70985;SDS011;58645;43.068;25.610;2024-03-17T05:39:52;27.33;;;15.63;;
70985;SDS011;58645;43.068;25.610;2024-03-17T05:42:19;24.75;;;13.27;;
70985;SDS011;58645;43.068;25.610;2024-03-17T05:44:44;25.63;;;15.70;;
70985;SDS011;58645;43.068;25.610;2024-03-17T05:47:18;27.15;;;14.43;;
70985;SDS011;58645;43.068;25.610;2024-03-17T05:49:44;24.65;;;14.00;;
70985;SDS011;58645;43.068;25.610;2024-03-17T05:52:10;24.60;;;13.45;;
70985;SDS011;58645;43.068;25.610;2024-03-17T05:54:37;26.45;;;15.25;;
70985;SDS011;58645;43.068;25.610;2024-03-17T05:57:03;26.45;;;16.65;;
70985;SDS011;58645;43.068;25.610;2024-03-17T05:59:29;26.73;;;16.25;;
70985;SDS011;58645;43.068;25.610;2024-03-17T06:01:56;27.52;;;18.58;;
70985;SDS011;58645;43.068;25.610;2024-03-17T06:04:22;22.55;;;12.65;;
70985;SDS011;58645;43.068;25.610;2024-03-17T06:06:49;21.88;;;13.80;;
70985;SDS011;58645;43.068;25.610;2024-03-17T06:09:14;21.02;;;14.85;;
70985;SDS011;58645;43.068;25.610;2024-03-17T06:11:43;21.90;;;14.70;;
70985;SDS011;58645;43.068;25.610;2024-03-17T06:14:09;20.80;;;15.38;;
70985;SDS011;58645;43.068;25.610;2024-03-17T06:16:37;26.13;;;17.92;;
70985;SDS011;58645;43.068;25.610;2024-03-17T06:19:03;26.98;;;19.10;;
70985;SDS011;58645;43.068;25.610;2024-03-17T06:21:29;24.38;;;16.92;;
70985;SDS011;58645;43.068;25.610;2024-03-17T06:23:54;23.58;;;14.27;;
70985;SDS011;58645;43.068;25.610;2024-03-17T06:26:20;23.45;;;14.75;;
70985;SDS011;58645;43.068;25.610;2024-03-17T06:28:46;25.00;;;17.63;;
70985;SDS011;58645;43.068;25.610;2024-03-17T06:31:12;23.95;;;16.17;;
70985;SDS011;58645;43.068;25.610;2024-03-17T06:33:37;19.23;;;13.23;;
70985;SDS011;58645;43.068;25.610;2024-03-17T06:36:03;20.15;;;14.63;;
70985;SDS011;58645;43.068;25.610;2024-03-17T06:38:30;21.83;;;14.23;;
70985;SDS011;58645;43.068;25.610;2024-03-17T06:40:59;18.75;;;13.50;;
70985;SDS011;58645;43.068;25.610;2024-03-17T06:43:24;19.83;;;13.27;;
70985;SDS011;58645;43.068;25.610;2024-03-17T06:45:56;21.02;;;16.15;;
70985;SDS011;58645;43.068;25.610;2024-03-17T06:48:24;21.48;;;15.30;;
70985;SDS011;58645;43.068;25.610;2024-03-17T06:50:50;19.70;;;14.43;;
70985;SDS011;58645;43.068;25.610;2024-03-17T06:53:17;24.27;;;19.65;;
70985;SDS011;58645;43.068;25.610;2024-03-17T06:55:44;23.52;;;19.05;;
70985;SDS011;58645;43.068;25.610;2024-03-17T06:58:17;27.58;;;19.50;;
70985;SDS011;58645;43.068;25.610;2024-03-17T07:00:51;24.23;;;19.98;;
70985;SDS011;58645;43.068;25.610;2024-03-17T07:03:18;22.52;;;17.83;;
70985;SDS011;58645;43.068;25.610;2024-03-17T07:05:50;37.60;;;29.02;;
70985;SDS011;58645;43.068;25.610;2024-03-17T07:08:20;31.75;;;25.38;;
70985;SDS011;58645;43.068;25.610;2024-03-17T07:13:24;32.03;;;21.85;;
70985;SDS011;58645;43.068;25.610;2024-03-17T07:15:51;29.95;;;22.98;;
70985;SDS011;58645;43.068;25.610;2024-03-17T07:18:16;31.83;;;24.17;;
70985;SDS011;58645;43.068;25.610;2024-03-17T07:20:42;27.23;;;20.50;;
70985;SDS011;58645;43.068;25.610;2024-03-17T07:25:33;26.50;;;20.08;;
70985;SDS011;58645;43.068;25.610;2024-03-17T07:30:25;22.67;;;18.27;;
70985;SDS011;58645;43.068;25.610;2024-03-17T07:35:16;19.25;;;15.25;;
70985;SDS011;58645;43.068;25.610;2024-03-17T07:40:07;14.15;;;11.75;;
70985;SDS011;58645;43.068;25.610;2024-03-17T07:42:36;15.15;;;10.65;;
70985;SDS011;58645;43.068;25.610;2024-03-17T07:45:02;10.35;;;7.80;;
70985;SDS011;58645;43.068;25.610;2024-03-17T07:47:29;12.23;;;9.25;;
70985;SDS011;58645;43.068;25.610;2024-03-17T07:50:03;10.73;;;8.00;;
70985;SDS011;58645;43.068;25.610;2024-03-17T07:52:31;10.10;;;7.60;;
70985;SDS011;58645;43.068;25.610;2024-03-17T07:54:57;9.75;;;6.97;;
70985;SDS011;58645;43.068;25.610;2024-03-17T07:57:23;11.10;;;8.40;;
70985;SDS011;58645;43.068;25.610;2024-03-17T07:59:52;15.27;;;11.10;;
70985;SDS011;58645;43.068;25.610;2024-03-17T08:02:17;11.75;;;7.75;;
70985;SDS011;58645;43.068;25.610;2024-03-17T08:04:43;10.20;;;7.50;;
70985;SDS011;58645;43.068;25.610;2024-03-17T08:07:12;8.73;;;6.10;;
70985;SDS011;58645;43.068;25.610;2024-03-17T08:09:37;10.27;;;6.47;;
70985;SDS011;58645;43.068;25.610;2024-03-17T08:12:03;8.48;;;5.93;;
70985;SDS011;58645;43.068;25.610;2024-03-17T08:14:29;10.63;;;8.75;;
70985;SDS011;58645;43.068;25.610;2024-03-17T08:16:56;9.57;;;7.07;;
70985;SDS011;58645;43.068;25.610;2024-03-17T08:19:21;7.10;;;5.00;;
70985;SDS011;58645;43.068;25.610;2024-03-17T08:21:47;7.60;;;5.55;;
70985;SDS011;58645;43.068;25.610;2024-03-17T08:24:13;7.43;;;5.55;;
70985;SDS011;58645;43.068;25.610;2024-03-17T08:26:39;7.32;;;5.80;;
70985;SDS011;58645;43.068;25.610;2024-03-17T08:29:10;8.15;;;6.03;;
70985;SDS011;58645;43.068;25.610;2024-03-17T08:31:36;8.15;;;5.95;;
70985;SDS011;58645;43.068;25.610;2024-03-17T08:34:02;6.85;;;5.20;;
70985;SDS011;58645;43.068;25.610;2024-03-17T08:36:28;16.48;;;14.27;;
70985;SDS011;58645;43.068;25.610;2024-03-17T08:38:54;8.45;;;6.93;;
70985;SDS011;58645;43.068;25.610;2024-03-17T08:41:20;10.98;;;9.68;;
70985;SDS011;58645;43.068;25.610;2024-03-17T08:43:45;9.70;;;8.52;;
70985;SDS011;58645;43.068;25.610;2024-03-17T08:46:12;6.18;;;4.88;;
70985;SDS011;58645;43.068;25.610;2024-03-17T08:48:39;6.15;;;4.65;;
70985;SDS011;58645;43.068;25.610;2024-03-17T08:51:06;8.48;;;6.25;;
70985;SDS011;58645;43.068;25.610;2024-03-17T08:53:33;11.18;;;9.00;;
70985;SDS011;58645;43.068;25.610;2024-03-17T08:55:59;7.93;;;5.65;;
70985;SDS011;58645;43.068;25.610;2024-03-17T08:58:26;7.65;;;4.40;;
70985;SDS011;58645;43.068;25.610;2024-03-17T09:00:52;6.65;;;5.32;;
70985;SDS011;58645;43.068;25.610;2024-03-17T09:03:18;9.88;;;8.50;;
70985;SDS011;58645;43.068;25.610;2024-03-17T09:05:44;10.07;;;8.30;;
70985;SDS011;58645;43.068;25.610;2024-03-17T09:08:14;8.02;;;5.18;;
70985;SDS011;58645;43.068;25.610;2024-03-17T09:10:47;5.50;;;3.95;;
70985;SDS011;58645;43.068;25.610;2024-03-17T09:13:19;4.97;;;3.50;;
70985;SDS011;58645;43.068;25.610;2024-03-17T09:15:52;5.55;;;4.72;;
70985;SDS011;58645;43.068;25.610;2024-03-17T09:18:19;4.95;;;3.72;;
70985;SDS011;58645;43.068;25.610;2024-03-17T09:20:45;4.78;;;3.47;;
70985;SDS011;58645;43.068;25.610;2024-03-17T09:23:11;4.95;;;3.33;;
70985;SDS011;58645;43.068;25.610;2024-03-17T09:25:39;6.60;;;4.95;;
70985;SDS011;58645;43.068;25.610;2024-03-17T09:28:04;5.90;;;4.43;;
70985;SDS011;58645;43.068;25.610;2024-03-17T09:30:30;5.20;;;3.85;;
70985;SDS011;58645;43.068;25.610;2024-03-17T09:32:56;5.40;;;4.00;;
70985;SDS011;58645;43.068;25.610;2024-03-17T09:35:21;5.95;;;4.07;;
70985;SDS011;58645;43.068;25.610;2024-03-17T09:37:47;5.35;;;3.47;;
70985;SDS011;58645;43.068;25.610;2024-03-17T09:40:13;5.68;;;4.35;;
70985;SDS011;58645;43.068;25.610;2024-03-17T09:42:40;5.10;;;3.83;;
70985;SDS011;58645;43.068;25.610;2024-03-17T09:45:08;4.97;;;3.58;;
70985;SDS011;58645;43.068;25.610;2024-03-17T09:47:37;9.32;;;7.05;;
70985;SDS011;58645;43.068;25.610;2024-03-17T09:50:04;8.23;;;6.65;;
70985;SDS011;58645;43.068;25.610;2024-03-17T09:52:37;4.50;;;3.30;;
70985;SDS011;58645;43.068;25.610;2024-03-17T09:55:08;3.85;;;2.83;;
70985;SDS011;58645;43.068;25.610;2024-03-17T09:57:38;4.32;;;3.05;;
70985;SDS011;58645;43.068;25.610;2024-03-17T10:00:09;4.07;;;3.17;;
70985;SDS011;58645;43.068;25.610;2024-03-17T10:02:44;4.07;;;3.00;;
70985;SDS011;58645;43.068;25.610;2024-03-17T10:05:21;4.22;;;2.90;;
70985;SDS011;58645;43.068;25.610;2024-03-17T10:07:49;3.97;;;3.10;;
70985;SDS011;58645;43.068;25.610;2024-03-17T10:10:15;5.80;;;4.15;;
70985;SDS011;58645;43.068;25.610;2024-03-17T10:12:41;4.40;;;3.10;;
70985;SDS011;58645;43.068;25.610;2024-03-17T10:15:10;3.45;;;2.30;;
70985;SDS011;58645;43.068;25.610;2024-03-17T10:17:37;3.00;;;1.80;;
70985;SDS011;58645;43.068;25.610;2024-03-17T10:20:19;3.60;;;3.30;;
70985;SDS011;58645;43.068;25.610;2024-03-17T10:23:01;4.22;;;3.63;;
70985;SDS011;58645;43.068;25.610;2024-03-17T10:25:32;4.95;;;3.08;;
70985;SDS011;58645;43.068;25.610;2024-03-17T10:28:01;3.78;;;2.92;;
70985;SDS011;58645;43.068;25.610;2024-03-17T10:30:27;4.55;;;3.55;;
70985;SDS011;58645;43.068;25.610;2024-03-17T10:32:56;4.63;;;2.70;;
70985;SDS011;58645;43.068;25.610;2024-03-17T10:35:33;3.65;;;3.15;;
70985;SDS011;58645;43.068;25.610;2024-03-17T10:38:03;4.80;;;2.58;;
70985;SDS011;58645;43.068;25.610;2024-03-17T10:40:31;4.03;;;2.47;;
70985;SDS011;58645;43.068;25.610;2024-03-17T10:43:04;4.07;;;3.00;;
70985;SDS011;58645;43.068;25.610;2024-03-17T10:45:31;3.40;;;2.45;;
70985;SDS011;58645;43.068;25.610;2024-03-17T10:48:07;2.80;;;2.20;;
70985;SDS011;58645;43.068;25.610;2024-03-17T10:50:37;3.42;;;2.50;;
70985;SDS011;58645;43.068;25.610;2024-03-17T10:53:05;2.72;;;2.03;;
70985;SDS011;58645;43.068;25.610;2024-03-17T10:58:53;2.95;;;2.03;;
70985;SDS011;58645;43.068;25.610;2024-03-17T11:01:06;2.60;;;2.15;;
70985;SDS011;58645;43.068;25.610;2024-03-17T11:03:32;2.63;;;1.98;;
70985;SDS011;58645;43.068;25.610;2024-03-17T11:06:00;2.67;;;1.83;;
70985;SDS011;58645;43.068;25.610;2024-03-17T11:08:29;3.55;;;2.22;;
70985;SDS011;58645;43.068;25.610;2024-03-17T11:10:57;3.97;;;1.75;;
70985;SDS011;58645;43.068;25.610;2024-03-17T11:13:24;2.70;;;1.92;;
70985;SDS011;58645;43.068;25.610;2024-03-17T11:15:51;3.28;;;2.95;;
70985;SDS011;58645;43.068;25.610;2024-03-17T11:21:07;2.97;;;2.22;;
70985;SDS011;58645;43.068;25.610;2024-03-17T11:23:48;3.53;;;2.45;;
70985;SDS011;58645;43.068;25.610;2024-03-17T11:26:32;3.30;;;2.33;;
70985;SDS011;58645;43.068;25.610;2024-03-17T11:28:59;2.90;;;1.90;;
70985;SDS011;58645;43.068;25.610;2024-03-17T11:31:34;3.58;;;1.90;;
70985;SDS011;58645;43.068;25.610;2024-03-17T11:37:04;2.88;;;1.85;;
70985;SDS011;58645;43.068;25.610;2024-03-17T11:39:49;2.78;;;2.20;;
70985;SDS011;58645;43.068;25.610;2024-03-17T11:42:22;2.88;;;2.33;;
70985;SDS011;58645;43.068;25.610;2024-03-17T11:47:41;3.80;;;1.77;;
70985;SDS011;58645;43.068;25.610;2024-03-17T11:50:09;3.90;;;1.95;;
70985;SDS011;58645;43.068;25.610;2024-03-17T11:52:38;2.40;;;1.73;;
70985;SDS011;58645;43.068;25.610;2024-03-17T11:55:14;3.33;;;2.00;;
70985;SDS011;58645;43.068;25.610;2024-03-17T11:57:41;2.50;;;1.55;;
70985;SDS011;58645;43.068;25.610;2024-03-17T12:00:18;2.22;;;1.73;;
70985;SDS011;58645;43.068;25.610;2024-03-17T12:02:47;2.28;;;1.73;;
70985;SDS011;58645;43.068;25.610;2024-03-17T12:05:14;2.47;;;2.28;;
70985;SDS011;58645;43.068;25.610;2024-03-17T12:07:42;4.00;;;2.00;;
70985;SDS011;58645;43.068;25.610;2024-03-17T12:10:12;3.53;;;2.40;;
70985;SDS011;58645;43.068;25.610;2024-03-17T12:12:41;4.63;;;2.58;;
70985;SDS011;58645;43.068;25.610;2024-03-17T12:15:16;2.30;;;1.70;;
70985;SDS011;58645;43.068;25.610;2024-03-17T12:17:44;3.28;;;1.70;;
70985;SDS011;58645;43.068;25.610;2024-03-17T12:20:17;2.60;;;1.88;;
70985;SDS011;58645;43.068;25.610;2024-03-17T12:22:46;2.47;;;1.88;;
70985;SDS011;58645;43.068;25.610;2024-03-17T12:25:16;3.15;;;1.92;;
70985;SDS011;58645;43.068;25.610;2024-03-17T12:27:45;3.47;;;2.28;;
70985;SDS011;58645;43.068;25.610;2024-03-17T12:30:11;2.60;;;1.55;;
70985;SDS011;58645;43.068;25.610;2024-03-17T12:32:37;3.22;;;2.30;;
70985;SDS011;58645;43.068;25.610;2024-03-17T12:35:03;2.33;;;1.77;;
70985;SDS011;58645;43.068;25.610;2024-03-17T12:37:43;1.80;;;1.23;;
70985;SDS011;58645;43.068;25.610;2024-03-17T12:40:19;2.53;;;2.20;;
70985;SDS011;58645;43.068;25.610;2024-03-17T12:42:47;1.90;;;1.40;;
70985;SDS011;58645;43.068;25.610;2024-03-17T12:45:14;2.78;;;1.50;;
70985;SDS011;58645;43.068;25.610;2024-03-17T12:47:46;2.00;;;1.52;;
70985;SDS011;58645;43.068;25.610;2024-03-17T12:50:13;3.28;;;2.20;;
70985;SDS011;58645;43.068;25.610;2024-03-17T12:52:40;2.22;;;1.95;;
70985;SDS011;58645;43.068;25.610;2024-03-17T12:55:06;2.45;;;1.88;;
70985;SDS011;58645;43.068;25.610;2024-03-17T12:58:13;2.55;;;2.20;;
70985;SDS011;58645;43.068;25.610;2024-03-17T13:01:01;2.42;;;1.90;;
70985;SDS011;58645;43.068;25.610;2024-03-17T13:06:03;1.95;;;1.58;;
70985;SDS011;58645;43.068;25.610;2024-03-17T13:08:33;1.95;;;1.42;;
70985;SDS011;58645;43.068;25.610;2024-03-17T13:13:25;2.05;;;1.58;;
70985;SDS011;58645;43.068;25.610;2024-03-17T13:15:51;3.10;;;1.60;;
70985;SDS011;58645;43.068;25.610;2024-03-17T13:18:17;2.40;;;1.33;;
70985;SDS011;58645;43.068;25.610;2024-03-17T13:20:47;2.25;;;1.50;;
70985;SDS011;58645;43.068;25.610;2024-03-17T13:23:15;2.25;;;0.85;;
70985;SDS011;58645;43.068;25.610;2024-03-17T13:28:08;2.05;;;1.33;;
70985;SDS011;58645;43.068;25.610;2024-03-17T13:30:35;1.90;;;1.40;;
70985;SDS011;58645;43.068;25.610;2024-03-17T13:33:05;2.33;;;1.15;;
70985;SDS011;58645;43.068;25.610;2024-03-17T13:35:35;1.98;;;1.65;;
70985;SDS011;58645;43.068;25.610;2024-03-17T13:38:07;2.90;;;1.50;;
70985;SDS011;58645;43.068;25.610;2024-03-17T13:40:35;2.30;;;1.80;;
70985;SDS011;58645;43.068;25.610;2024-03-17T13:43:03;2.55;;;1.67;;
70985;SDS011;58645;43.068;25.610;2024-03-17T13:45:29;3.53;;;2.50;;
70985;SDS011;58645;43.068;25.610;2024-03-17T13:48:03;2.53;;;1.42;;
70985;SDS011;58645;43.068;25.610;2024-03-17T13:50:29;3.45;;;2.25;;
70985;SDS011;58645;43.068;25.610;2024-03-17T13:52:55;2.60;;;2.03;;
70985;SDS011;58645;43.068;25.610;2024-03-17T13:55:22;3.60;;;2.35;;
70985;SDS011;58645;43.068;25.610;2024-03-17T13:57:53;3.53;;;1.77;;
70985;SDS011;58645;43.068;25.610;2024-03-17T14:00:20;2.28;;;1.70;;
70985;SDS011;58645;43.068;25.610;2024-03-17T14:02:48;3.75;;;1.50;;
70985;SDS011;58645;43.068;25.610;2024-03-17T14:05:15;2.13;;;1.58;;
70985;SDS011;58645;43.068;25.610;2024-03-17T14:07:43;3.20;;;1.25;;
70985;SDS011;58645;43.068;25.610;2024-03-17T14:10:10;2.72;;;1.70;;
70985;SDS011;58645;43.068;25.610;2024-03-17T14:12:36;2.40;;;1.75;;
70985;SDS011;58645;43.068;25.610;2024-03-17T14:15:09;2.60;;;1.63;;
70985;SDS011;58645;43.068;25.610;2024-03-17T14:17:37;5.13;;;1.45;;
70985;SDS011;58645;43.068;25.610;2024-03-17T14:20:07;2.28;;;1.65;;
70985;SDS011;58645;43.068;25.610;2024-03-17T14:22:37;3.45;;;1.52;;
70985;SDS011;58645;43.068;25.610;2024-03-17T14:25:06;2.17;;;1.60;;
70985;SDS011;58645;43.068;25.610;2024-03-17T14:27:34;2.90;;;1.92;;
70985;SDS011;58645;43.068;25.610;2024-03-17T14:30:01;2.20;;;1.20;;
70985;SDS011;58645;43.068;25.610;2024-03-17T14:32:29;3.35;;;1.92;;
70985;SDS011;58645;43.068;25.610;2024-03-17T14:34:55;3.83;;;1.92;;
70985;SDS011;58645;43.068;25.610;2024-03-17T14:37:21;3.35;;;1.60;;
70985;SDS011;58645;43.068;25.610;2024-03-17T14:39:47;3.10;;;1.67;;
70985;SDS011;58645;43.068;25.610;2024-03-17T14:42:15;2.30;;;1.77;;
70985;SDS011;58645;43.068;25.610;2024-03-17T14:44:40;2.50;;;1.73;;
70985;SDS011;58645;43.068;25.610;2024-03-17T14:47:06;2.97;;;2.13;;
70985;SDS011;58645;43.068;25.610;2024-03-17T14:49:33;3.53;;;2.13;;
70985;SDS011;58645;43.068;25.610;2024-03-17T14:54:25;3.45;;;2.35;;
70985;SDS011;58645;43.068;25.610;2024-03-17T14:56:51;3.25;;;2.28;;
70985;SDS011;58645;43.068;25.610;2024-03-17T14:59:18;3.70;;;2.03;;
70985;SDS011;58645;43.068;25.610;2024-03-17T15:01:45;3.45;;;2.47;;
70985;SDS011;58645;43.068;25.610;2024-03-17T15:04:12;3.55;;;2.10;;
70985;SDS011;58645;43.068;25.610;2024-03-17T15:06:38;2.63;;;1.85;;
70985;SDS011;58645;43.068;25.610;2024-03-17T15:09:05;3.80;;;2.22;;
70985;SDS011;58645;43.068;25.610;2024-03-17T15:11:31;2.63;;;1.65;;
70985;SDS011;58645;43.068;25.610;2024-03-17T15:13:57;3.30;;;2.25;;
70985;SDS011;58645;43.068;25.610;2024-03-17T15:16:23;4.65;;;2.75;;
70985;SDS011;58645;43.068;25.610;2024-03-17T15:18:49;3.75;;;2.20;;